Time;durP1;ratioP1;P1;durP2;ratioP2;P2;SDS_P1;SDS_P2;PMS_P1;PMS_P2;Temp;Humidity;BMP_temperature;BMP_pressure;BME280_temperature;BME280_humidity;BME280_pressure;Samples;Min_cycle;Max_cycle;Signal;HPM_P1;HPM_P2
2023/03/01 00:01:35;;;;;;;174.80;88.40;;;;;;;-4.09;64.27;100352.06;104725;1273;110842;-69
2023/03/01 00:04:04;;;;;;;178.50;88.90;;;;;;;-4.07;64.44;100352.42;104780;1262;100855;-69
2023/03/01 00:06:32;;;;;;;163.80;85.30;;;;;;;-4.06;64.51;100353.80;104840;1260;107611;-69
2023/03/01 00:09:00;;;;;;;183.00;94.60;;;;;;;-4.10;64.28;100355.70;104880;1258;98836;-69
2023/03/01 00:11:30;;;;;;;185.50;92.70;;;;;;;-4.14;64.22;100353.77;104977;1262;98354;-69
2023/03/01 00:14:01;;;;;;;216.70;104.70;;;;;;;-4.16;64.40;100361.00;104668;1269;112582;-69
2023/03/01 00:16:35;;;;;;;220.10;114.10;;;;;;;-4.14;64.49;100362.09;105081;1262;100888;-70
2023/03/01 00:19:03;;;;;;;194.80;99.90;;;;;;;-4.13;64.49;100352.38;104818;1264;107677;-69
2023/03/01 00:21:31;;;;;;;192.70;99.50;;;;;;;-4.11;64.44;100353.79;104679;1262;98291;-70
2023/03/01 00:23:59;;;;;;;189.00;97.30;;;;;;;-4.11;64.35;100349.45;104844;1259;98043;-70
2023/03/01 00:26:28;;;;;;;186.40;94.80;;;;;;;-4.11;64.30;100340.43;104868;1262;111889;-70
2023/03/01 00:28:58;;;;;;;175.90;90.20;;;;;;;-4.13;64.40;100341.29;104881;1271;100901;-70
2023/03/01 00:31:30;;;;;;;160.60;81.70;;;;;;;-4.18;64.47;100340.38;104968;1264;107607;-70
2023/03/01 00:34:01;;;;;;;154.30;82.40;;;;;;;-4.26;64.48;100334.08;104672;1263;98802;-70
2023/03/01 00:36:34;;;;;;;174.30;89.10;;;;;;;-4.30;64.45;100325.23;104878;1259;98415;-70
2023/03/01 00:39:06;;;;;;;178.50;88.30;;;;;;;-4.28;64.52;100322.80;104997;1259;110923;-70
2023/03/01 00:41:34;;;;;;;174.50;93.60;;;;;;;-4.25;64.60;100320.23;104940;1263;99746;-70
2023/03/01 00:44:03;;;;;;;189.10;94.70;;;;;;;-4.25;64.56;100315.39;104941;1262;106531;-70
2023/03/01 00:46:31;;;;;;;171.90;87.50;;;;;;;-4.26;64.38;100308.09;104855;1262;99236;-69
2023/03/01 00:49:01;;;;;;;181.70;90.90;;;;;;;-4.26;64.71;100316.06;104975;1259;99262;-69
2023/03/01 00:51:30;;;;;;;164.40;81.70;;;;;;;-4.27;64.61;100313.98;104849;1263;110924;-69
2023/03/01 00:54:01;;;;;;;159.60;83.80;;;;;;;-4.31;64.67;100311.53;104809;1259;100647;-69
2023/03/01 00:56:30;;;;;;;175.30;90.60;;;;;;;-4.36;64.55;100312.88;104927;1260;107245;-70
2023/03/01 00:59:00;;;;;;;171.20;91.60;;;;;;;-4.34;64.84;100309.60;104839;1263;98018;-70
2023/03/01 01:01:30;;;;;;;151.60;83.30;;;;;;;-4.31;64.75;100308.92;105062;1262;98363;-72
2023/03/01 01:04:01;;;;;;;167.90;87.00;;;;;;;-4.33;64.86;100304.41;104682;1260;111304;-71
2023/03/01 01:06:35;;;;;;;170.20;86.20;;;;;;;-4.35;64.83;100300.94;104651;1265;100655;-69
2023/03/01 01:09:06;;;;;;;168.40;87.20;;;;;;;-4.35;64.67;100300.94;104792;1260;107733;-70
2023/03/01 01:11:36;;;;;;;154.50;82.30;;;;;;;-4.37;64.58;100300.23;104740;1260;98875;-70
2023/03/01 01:14:04;;;;;;;173.70;88.90;;;;;;;-4.43;64.63;100298.09;104796;1262;98390;-69
2023/03/01 01:16:32;;;;;;;172.40;86.10;;;;;;;-4.43;64.80;100299.13;105150;1259;111120;-69
2023/03/01 01:19:00;;;;;;;155.20;80.40;;;;;;;-4.42;64.86;100300.70;104580;1262;100913;-69
2023/03/01 01:21:28;;;;;;;162.60;85.30;;;;;;;-4.48;64.74;100296.32;104775;1266;107197;-70
2023/03/01 01:23:56;;;;;;;173.10;87.80;;;;;;;-4.52;64.88;100299.23;104865;1273;99278;-69
2023/03/01 01:26:27;;;;;;;171.40;86.10;;;;;;;-4.49;64.90;100294.59;105004;1262;98463;-69
2023/03/01 01:28:57;;;;;;;176.80;87.10;;;;;;;-4.46;65.04;100289.73;104950;1262;110847;-70
2023/03/01 01:31:26;;;;;;;165.50;81.50;;;;;;;-4.45;64.88;100285.42;104995;1262;100938;-69
2023/03/01 01:33:55;;;;;;;157.10;80.70;;;;;;;-4.46;65.06;100283.33;104741;1265;107613;-70
2023/03/01 01:36:23;;;;;;;158.40;81.60;;;;;;;-4.47;65.09;100280.73;104767;1264;98024;-70
2023/03/01 01:38:51;;;;;;;145.20;78.30;;;;;;;-4.46;65.00;100275.37;104589;1270;99201;-69
2023/03/01 01:41:20;;;;;;;134.50;67.70;;;;;;;-4.47;65.02;100270.69;104818;1259;111217;-70
2023/03/01 01:44:09;;;;;;;150.00;76.60;;;;;;;-4.50;64.88;100276.39;104790;1263;100165;-70
2023/03/01 01:46:55;;;;;;;146.70;77.80;;;;;;;-4.57;64.91;100271.84;104694;1262;107090;-70
2023/03/01 01:49:41;;;;;;;155.90;78.30;;;;;;;-4.59;64.97;100272.33;104685;1259;98019;-70
2023/03/01 01:52:11;;;;;;;169.20;83.90;;;;;;;-4.59;65.15;100272.67;104766;1258;100469;-70
2023/03/01 01:54:41;;;;;;;157.30;79.60;;;;;;;-4.56;65.10;100270.64;104776;1259;111315;-70
2023/03/01 01:57:16;;;;;;;144.40;71.50;;;;;;;-4.53;65.05;100270.14;104929;1260;99365;-70
2023/03/01 01:59:50;;;;;;;147.80;70.10;;;;;;;-4.56;65.08;100274.95;104851;1263;107631;-70
2023/03/01 02:02:19;;;;;;;161.50;76.00;;;;;;;-4.58;65.25;100273.73;104855;1259;99166;-70
2023/03/01 02:04:49;;;;;;;161.20;77.40;;;;;;;-4.55;65.24;100268.55;104671;1262;98718;-70
2023/03/01 02:07:21;;;;;;;159.80;80.60;;;;;;;-4.55;65.28;100268.56;104790;1262;110469;-71
2023/03/01 02:09:52;;;;;;;160.00;78.30;;;;;;;-4.53;65.19;100265.82;104856;1278;101866;-70
2023/03/01 02:12:23;;;;;;;155.50;80.20;;;;;;;-4.55;65.06;100264.06;104846;1262;107589;-70
2023/03/01 02:14:51;;;;;;;156.10;75.10;;;;;;;-4.55;65.07;100256.45;104832;1262;98044;-70
2023/03/01 02:17:21;;;;;;;148.00;75.00;;;;;;;-4.56;65.02;100254.87;104931;1260;98016;-70
2023/03/01 02:20:23;;;;;;;133.70;70.00;;;;;;;-4.59;65.08;100255.71;104698;1260;111152;-70
2023/03/01 02:22:53;;;;;;;137.30;68.30;;;;;;;-4.66;65.08;100254.45;104612;1262;100932;-69
2023/03/01 02:25:43;;;;;;;143.40;69.40;;;;;;;-4.71;65.16;100249.56;104754;1262;107571;-72
2023/03/01 02:28:17;;;;;;;136.90;67.90;;;;;;;-4.71;65.13;100249.22;104576;1263;99381;-69
2023/03/01 02:33:37;;;;;;;118.00;62.70;;;;;;;-4.74;65.28;100255.59;104708;1258;110688;-70
2023/03/01 02:36:11;;;;;;;149.40;74.90;;;;;;;-4.76;65.27;100257.13;104886;1267;99851;-70
2023/03/01 02:38:40;;;;;;;158.20;75.00;;;;;;;-4.77;65.20;100255.55;104829;1260;106785;-69
2023/03/01 02:41:13;;;;;;;153.20;72.20;;;;;;;-4.76;65.22;100256.60;104762;1258;98066;-70
2023/03/01 02:43:41;;;;;;;132.70;69.00;;;;;;;-4.77;65.39;100260.06;104678;1263;98869;-69
2023/03/01 02:46:21;;;;;;;131.80;64.20;;;;;;;-4.78;65.19;100260.73;104997;1259;111104;-69
2023/03/01 02:48:52;;;;;;;122.40;62.70;;;;;;;-4.83;65.32;100267.62;104696;1275;100908;-69
2023/03/01 02:51:32;;;;;;;120.00;62.20;;;;;;;-4.86;65.31;100268.97;104776;1281;107059;-70
2023/03/01 02:54:28;;;;;;;127.30;66.00;;;;;;;-4.91;65.22;100273.95;104690;1262;97982;-69
2023/03/01 02:56:57;;;;;;;119.10;61.20;;;;;;;-4.93;65.36;100277.57;104733;1260;98446;-70
2023/03/01 02:59:30;;;;;;;124.40;61.00;;;;;;;-4.90;65.44;100285.38;104812;1262;111319;-68
2023/03/01 03:02:00;;;;;;;132.80;67.80;;;;;;;-4.91;65.37;100283.30;104925;1262;101535;-68
2023/03/01 03:04:28;;;;;;;133.10;69.50;;;;;;;-4.88;65.54;100279.67;104496;1262;107569;-70
2023/03/01 03:06:56;;;;;;;132.40;68.90;;;;;;;-4.84;65.50;100270.55;104816;1262;98068;-70
2023/03/01 03:09:24;;;;;;;135.80;72.10;;;;;;;-4.81;65.47;100262.61;105100;1261;98463;-70
2023/03/01 03:11:53;;;;;;;130.60;68.60;;;;;;;-4.80;65.35;100263.85;104847;1262;111275;-70
2023/03/01 03:14:20;;;;;;;138.10;71.60;;;;;;;-4.80;65.32;100264.18;105047;1262;100891;-70
2023/03/01 03:16:50;;;;;;;135.40;71.70;;;;;;;-4.81;65.54;100263.83;105043;1260;108330;-70
2023/03/01 03:19:19;;;;;;;137.30;68.90;;;;;;;-4.80;65.54;100264.01;104961;1265;97949;-72
2023/03/01 03:21:47;;;;;;;126.20;66.60;;;;;;;-4.81;65.61;100266.08;104861;1264;98105;-70
2023/03/01 03:24:15;;;;;;;130.30;64.40;;;;;;;-4.84;65.55;100269.69;104711;1262;110864;-74
2023/03/01 03:26:43;;;;;;;123.20;63.00;;;;;;;-4.84;65.63;100267.09;104523;1264;100853;-71
2023/03/01 03:29:11;;;;;;;117.30;59.80;;;;;;;-4.83;65.73;100265.72;104647;1262;107717;-70
2023/03/01 03:31:39;;;;;;;117.40;58.00;;;;;;;-4.80;65.70;100263.85;104918;1262;99275;-69
2023/03/01 03:34:07;;;;;;;95.70;49.60;;;;;;;-4.77;65.73;100272.18;104936;1263;98039;-70
2023/03/01 03:36:35;;;;;;;100.80;49.80;;;;;;;-4.77;65.72;100274.25;104991;1262;112046;-70
2023/03/01 03:39:03;;;;;;;86.70;44.70;;;;;;;-4.80;65.56;100275.95;104954;1259;99344;-70
2023/03/01 03:41:35;;;;;;;98.10;49.80;;;;;;;-4.83;65.47;100272.98;104873;1260;107515;-70
2023/03/01 03:44:04;;;;;;;85.90;44.70;;;;;;;-4.81;65.68;100273.00;104772;1264;97973;-68
2023/03/01 03:46:32;;;;;;;83.40;41.40;;;;;;;-4.83;65.65;100274.88;104762;1261;99170;-69
2023/03/01 03:49:00;;;;;;;78.60;41.90;;;;;;;-4.87;65.57;100274.15;104803;1263;111266;-72
2023/03/01 03:51:28;;;;;;;78.70;42.80;;;;;;;-4.92;65.68;100272.23;104883;1263;100602;-69
2023/03/01 03:53:56;;;;;;;88.20;47.20;;;;;;;-4.94;65.69;100274.10;104875;1262;107305;-68
2023/03/01 03:56:25;;;;;;;85.90;44.90;;;;;;;-4.89;65.78;100265.48;104874;1260;97967;-68
2023/03/01 03:58:55;;;;;;;76.00;41.00;;;;;;;-4.85;65.75;100261.89;104786;1259;98461;-70
2023/03/01 04:01:23;;;;;;;76.70;42.40;;;;;;;-4.89;65.60;100261.69;104976;1259;111168;-70
2023/03/01 04:03:54;;;;;;;95.90;52.00;;;;;;;-4.95;65.59;100258.70;104678;1262;100135;-70
2023/03/01 04:06:22;;;;;;;86.60;47.10;;;;;;;-4.93;65.80;100262.34;104699;1273;107102;-70
2023/03/01 04:08:50;;;;;;;88.60;45.90;;;;;;;-4.91;65.75;100262.36;104698;1264;97939;-69
2023/03/01 04:11:27;;;;;;;96.10;47.90;;;;;;;-4.95;65.77;100265.27;104858;1260;98983;-70
2023/03/01 04:13:58;;;;;;;96.10;51.20;;;;;;;-4.94;65.71;100266.48;104974;1263;111278;-70
2023/03/01 04:16:26;;;;;;;93.40;47.50;;;;;;;-4.91;65.68;100268.25;105016;1263;100688;-69
2023/03/01 04:18:55;;;;;;;94.80;47.50;;;;;;;-4.91;65.86;100264.61;105096;1262;107570;-69
2023/03/01 04:21:23;;;;;;;93.20;47.10;;;;;;;-4.95;65.69;100263.38;104733;1264;98905;-69
2023/03/01 04:23:52;;;;;;;88.40;47.00;;;;;;;-4.96;65.70;100265.26;104951;1262;99310;-69
2023/03/01 04:26:20;;;;;;;91.40;47.40;;;;;;;-4.95;65.80;100264.58;104890;1259;111284;-69
2023/03/01 04:28:50;;;;;;;90.50;46.70;;;;;;;-4.96;65.69;100263.34;104821;1262;100528;-71
2023/03/01 04:31:20;;;;;;;93.60;47.50;;;;;;;-4.98;65.81;100267.66;104946;1274;107733;-69
2023/03/01 04:33:52;;;;;;;90.30;44.70;;;;;;;-4.98;65.85;100266.45;104702;1262;97955;-69
2023/03/01 04:36:23;;;;;;;90.20;46.50;;;;;;;-4.98;65.91;100272.48;104815;1263;98467;-69
2023/03/01 04:38:51;;;;;;;88.20;46.60;;;;;;;-4.99;65.89;100269.55;104860;1262;111256;-69
2023/03/01 04:41:22;;;;;;;87.60;46.20;;;;;;;-5.01;65.82;100271.61;104974;1263;100134;-69
2023/03/01 04:43:50;;;;;;;83.50;44.50;;;;;;;-5.03;65.74;100269.32;104895;1275;107175;-69
2023/03/01 04:46:20;;;;;;;80.80;39.80;;;;;;;-5.06;65.78;100263.75;104777;1262;99236;-69
2023/03/01 04:48:49;;;;;;;89.20;47.00;;;;;;;-5.08;65.77;100262.70;104814;1260;97904;-70
2023/03/01 04:51:18;;;;;;;106.20;55.50;;;;;;;-5.07;65.86;100259.25;106786;1265;110253;-69
2023/03/01 04:53:46;;;;;;;104.10;54.00;;;;;;;-5.05;65.92;100260.84;105022;1259;100853;-72
2023/03/01 04:56:15;;;;;;;111.10;56.30;;;;;;;-5.08;65.85;100267.20;106556;1260;108400;-69
2023/03/01 04:58:45;;;;;;;117.70;62.60;;;;;;;-5.11;65.86;100269.94;105184;1260;97833;-69
2023/03/01 05:01:18;;;;;;;114.60;62.80;;;;;;;-5.15;65.86;100272.31;108161;1260;95918;-71
2023/03/01 05:03:47;;;;;;;;;;;;;;;-5.15;65.98;100270.58;108145;1259;110916;-70
2023/03/01 05:06:19;;;;;;;94.00;52.70;;;;;;;-5.20;65.91;100276.08;108185;1260;99644;-72
2023/03/01 05:08:47;;;;;;;92.40;51.20;;;;;;;-5.21;65.72;100271.40;108142;1259;107686;-70
2023/03/01 05:11:15;;;;;;;106.50;56.10;;;;;;;-5.19;65.79;100270.02;108180;1258;95713;-71
2023/03/01 05:13:43;;;;;;;115.90;60.10;;;;;;;-5.19;65.83;100268.82;105495;1260;98412;-69
2023/03/01 05:16:11;;;;;;;116.20;61.40;;;;;;;-5.18;65.82;100268.48;104915;1260;111248;-70
2023/03/01 05:18:40;;;;;;;125.80;65.30;;;;;;;-5.19;65.83;100272.11;104902;1260;100886;-70
2023/03/01 05:21:11;;;;;;;119.30;66.20;;;;;;;-5.23;65.75;100272.41;104706;1262;107151;-70
2023/03/01 05:23:39;;;;;;;135.70;72.20;;;;;;;-5.20;65.95;100275.73;104697;1265;97949;-70
2023/03/01 05:26:08;;;;;;;127.20;67.80;;;;;;;-5.14;66.08;100274.77;104709;1262;98406;-69
2023/03/01 05:28:58;;;;;;;117.60;62.40;;;;;;;-5.15;65.97;100279.76;104658;1261;111072;-69
2023/03/01 05:31:28;;;;;;;120.10;60.40;;;;;;;-5.17;65.95;100280.77;104782;1260;100523;-73
2023/03/01 05:33:56;;;;;;;125.30;65.30;;;;;;;-5.16;66.05;100280.10;104877;1270;107623;-70
2023/03/01 05:36:24;;;;;;;122.10;62.70;;;;;;;-5.11;66.08;100279.29;104812;1264;97951;-69
2023/03/01 05:38:51;;;;;;;128.80;66.50;;;;;;;-5.02;66.28;100277.64;104933;1263;98457;-69
2023/03/01 05:41:19;;;;;;;122.50;63.00;;;;;;;-4.98;66.29;100279.05;104735;1262;111168;-70
2023/03/01 05:43:47;;;;;;;127.70;69.10;;;;;;;-4.96;66.26;100278.40;104885;1260;100900;-70
2023/03/01 05:46:16;;;;;;;120.40;64.20;;;;;;;-4.90;66.35;100282.80;104945;1263;107449;-71
2023/03/01 05:48:44;;;;;;;116.70;61.20;;;;;;;-4.85;66.42;100281.45;104925;1260;97947;-70
2023/03/01 05:51:12;;;;;;;111.90;63.10;;;;;;;-4.82;66.52;100276.98;104948;1260;98466;-69
2023/03/01 05:53:40;;;;;;;112.60;59.80;;;;;;;-4.74;66.65;100277.39;104907;1260;111259;-69
2023/03/01 05:56:08;;;;;;;119.20;61.80;;;;;;;-4.65;66.82;100272.10;104927;1260;100397;-70
2023/03/01 05:58:35;;;;;;;122.10;62.60;;;;;;;-4.57;66.73;100275.30;104823;1262;107665;-69
2023/03/01 06:01:04;;;;;;;119.10;61.40;;;;;;;-4.52;66.67;100270.15;104836;1263;97957;-73
2023/03/01 06:03:32;;;;;;;114.80;57.10;;;;;;;-4.46;66.74;100268.63;104825;1264;98463;-69
2023/03/01 06:06:00;;;;;;;107.60;56.00;;;;;;;-4.40;66.64;100266.94;104811;1262;110714;-70
2023/03/01 06:08:28;;;;;;;113.90;58.50;;;;;;;-4.35;66.72;100262.14;104803;1262;100990;-73
2023/03/01 06:10:56;;;;;;;107.50;58.90;;;;;;;-4.26;66.82;100257.34;105229;1262;107216;-72
2023/03/01 06:13:24;;;;;;;115.70;57.50;;;;;;;-4.19;66.94;100248.91;104798;1265;97941;-72
2023/03/01 06:15:52;;;;;;;114.10;57.70;;;;;;;-4.09;66.96;100247.23;105164;1272;98483;-76
2023/03/01 06:18:21;;;;;;;100.50;54.60;;;;;;;-4.00;67.16;100247.46;105350;1262;111236;-75
2023/03/01 06:20:54;;;;;;;106.40;55.80;;;;;;;-3.91;67.07;100244.58;104908;1263;100889;-73
2023/03/01 06:23:23;;;;;;;96.80;52.40;;;;;;;-3.83;67.10;100246.34;104942;1263;107584;-74
2023/03/01 06:25:51;;;;;;;95.20;50.40;;;;;;;-3.75;67.25;100236.50;104797;1262;99274;-74
2023/03/01 06:28:18;;;;;;;98.40;52.10;;;;;;;-3.66;67.11;100225.27;104945;1264;99545;-74
2023/03/01 06:30:47;;;;;;;92.10;51.00;;;;;;;-3.56;67.09;100227.21;105022;1261;111234;-74
2023/03/01 06:33:15;;;;;;;104.10;54.00;;;;;;;-3.48;67.41;100226.73;104924;1262;100678;-76
2023/03/01 06:35:43;;;;;;;97.70;53.30;;;;;;;-3.43;67.08;100219.27;104782;1262;107627;-74
2023/03/01 06:38:14;;;;;;;92.00;52.10;;;;;;;-3.35;67.07;100222.08;105015;1267;98002;-73
2023/03/01 06:40:42;;;;;;;97.60;52.40;;;;;;;-3.28;67.42;100220.54;105113;1260;98857;-72
2023/03/01 06:43:10;;;;;;;92.50;53.40;;;;;;;-3.21;67.43;100228.86;104998;1264;111355;-74
2023/03/01 06:45:39;;;;;;;104.80;57.30;;;;;;;-3.15;67.30;100228.38;104719;1281;100857;-73
2023/03/01 06:48:07;;;;;;;110.80;58.40;;;;;;;-3.08;67.16;100238.98;104824;1262;107743;-73
2023/03/01 06:50:35;;;;;;;108.60;57.00;;;;;;;-3.01;67.41;100238.98;104981;1263;97973;-70
2023/03/01 06:53:04;;;;;;;108.10;58.30;;;;;;;-2.92;67.34;100236.58;104874;1265;98479;-73
2023/03/01 06:55:32;;;;;;;108.40;59.90;;;;;;;-2.84;67.48;100234.66;104976;1260;111291;-73
2023/03/01 06:58:03;;;;;;;104.70;58.20;;;;;;;-2.76;67.80;100235.02;104636;1265;99887;-75
2023/03/01 07:00:31;;;;;;;126.10;64.20;;;;;;;-2.66;67.63;100236.07;105158;1261;107419;-73
2023/03/01 07:03:01;;;;;;;129.10;67.00;;;;;;;-2.58;67.62;100239.02;104703;1263;97962;-73
2023/03/01 07:05:30;;;;;;;119.10;61.30;;;;;;;-2.50;68.07;100242.67;105003;1259;98380;-72
2023/03/01 07:07:58;;;;;;;116.60;61.00;;;;;;;-2.43;67.53;100244.05;104813;1281;111356;-73
2023/03/01 07:10:26;;;;;;;117.90;60.30;;;;;;;-2.37;67.87;100243.87;104827;1260;101044;-73
2023/03/01 07:12:56;;;;;;;105.70;59.10;;;;;;;-2.29;67.98;100243.70;105078;1260;106212;-72
2023/03/01 07:15:26;;;;;;;115.70;64.30;;;;;;;-2.22;67.86;100240.73;105243;1263;97940;-72
2023/03/01 07:17:55;;;;;;;103.60;59.40;;;;;;;-2.14;67.87;100239.48;105079;1264;99330;-74
2023/03/01 07:20:25;;;;;;;106.00;56.20;;;;;;;-2.06;67.85;100231.30;105191;1262;111259;-74
2023/03/01 07:22:54;;;;;;;92.50;53.50;;;;;;;-1.99;67.87;100223.81;104781;1260;99844;-73
2023/03/01 07:25:23;;;;;;;99.50;56.90;;;;;;;-1.93;67.96;100225.55;104974;1275;107664;-72
2023/03/01 07:27:52;;;;;;;104.30;56.30;;;;;;;-1.88;67.66;100219.45;105021;1262;97941;-72
2023/03/01 07:30:21;;;;;;;97.10;54.90;;;;;;;-1.82;67.70;100215.60;105056;1263;98544;-75
2023/03/01 07:32:49;;;;;;;98.30;53.80;;;;;;;-1.74;67.97;100214.87;104764;1263;110723;-73
2023/03/01 07:35:17;;;;;;;96.30;53.70;;;;;;;-1.69;67.64;100213.81;104944;1260;102662;-76
2023/03/01 07:37:45;;;;;;;94.60;53.70;;;;;;;-1.63;67.88;100204.91;104996;1264;107607;-77
2023/03/01 07:40:14;;;;;;;90.60;51.40;;;;;;;-1.57;68.05;100207.33;104728;1260;98863;-73
2023/03/01 07:42:42;;;;;;;84.50;48.60;;;;;;;-1.51;68.06;100208.34;104894;1260;99279;-73
2023/03/01 07:45:11;;;;;;;92.10;51.20;;;;;;;-1.45;67.98;100204.33;104718;1262;111240;-74
2023/03/01 07:47:39;;;;;;;90.40;49.00;;;;;;;-1.41;67.94;100203.77;104922;1266;100586;-74
2023/03/01 07:50:08;;;;;;;85.90;48.10;;;;;;;-1.38;68.27;100201.48;104688;1269;107736;-74
2023/03/01 07:52:36;;;;;;;85.50;46.50;;;;;;;-1.32;68.11;100206.31;105162;1262;99170;-72
2023/03/01 07:55:05;;;;;;;85.10;47.50;;;;;;;-1.26;68.30;100208.21;104714;1259;98464;-74
2023/03/01 07:57:34;;;;;;;80.70;45.30;;;;;;;-1.22;68.29;100206.45;104911;1265;111316;-73
2023/03/01 08:00:02;;;;;;;90.40;51.80;;;;;;;-1.20;67.88;100206.25;105144;1260;98938;-73
2023/03/01 08:02:31;;;;;;;84.90;47.30;;;;;;;-1.14;68.04;100201.17;105076;1262;106741;-73
2023/03/01 08:04:59;;;;;;;79.90;43.80;;;;;;;-1.09;68.06;100204.97;105324;1262;97951;-73
2023/03/01 08:07:27;;;;;;;72.10;41.70;;;;;;;-1.08;68.15;100206.88;104996;1260;98920;-73
2023/03/01 08:09:55;;;;;;;77.80;44.10;;;;;;;-1.08;68.12;100208.95;105033;1262;111361;-73
2023/03/01 08:12:24;;;;;;;72.80;42.60;;;;;;;-1.07;68.10;100210.00;105030;1262;99314;-74
2023/03/01 08:14:52;;;;;;;73.30;41.30;;;;;;;-1.03;68.11;100215.21;104912;1263;107490;-72
2023/03/01 08:17:19;;;;;;;59.70;32.30;;;;;;;-1.01;67.91;100212.05;104832;1263;97947;-73
2023/03/01 08:19:47;;;;;;;66.10;35.70;;;;;;;-0.98;67.86;100212.38;104614;1263;99611;-73
2023/03/01 08:22:16;;;;;;;63.10;33.70;;;;;;;-0.95;67.94;100207.84;105092;1262;111246;-74
2023/03/01 08:24:44;;;;;;;55.40;29.90;;;;;;;-0.93;67.75;100209.20;104865;1262;100642;-75
2023/03/01 08:27:13;;;;;;;51.20;29.30;;;;;;;-0.91;67.83;100206.40;104918;1262;107434;-77
2023/03/01 08:29:41;;;;;;;54.00;29.10;;;;;;;-0.86;67.87;100204.12;104920;1262;97950;-73
2023/03/01 08:32:08;;;;;;;47.20;24.50;;;;;;;-0.82;67.55;100200.95;104728;1272;98421;-74
2023/03/01 08:34:37;;;;;;;50.70;26.40;;;;;;;-0.80;67.46;100203.54;104955;1263;111280;-74
2023/03/01 08:37:07;;;;;;;50.00;27.60;;;;;;;-0.77;67.66;100198.29;104671;1273;100948;-72
2023/03/01 08:39:35;;;;;;;50.40;26.80;;;;;;;-0.72;67.51;100198.25;104942;1264;106232;-75
2023/03/01 08:42:03;;;;;;;74.70;33.80;;;;;;;-0.66;67.57;100201.17;104899;1273;98071;-74
2023/03/01 08:44:31;;;;;;;57.10;30.30;;;;;;;-0.59;67.81;100198.32;105145;1262;97938;-74
2023/03/01 08:46:59;;;;;;;56.80;30.80;;;;;;;-0.53;67.67;100200.88;104961;1262;111266;-75
2023/03/01 08:49:28;;;;;;;53.80;30.60;;;;;;;-0.49;67.75;100198.40;105380;1262;100596;-73
2023/03/01 08:51:58;;;;;;;60.10;31.70;;;;;;;-0.43;67.78;100197.31;105318;1260;107596;-71
2023/03/01 08:54:25;;;;;;;58.40;31.50;;;;;;;-0.38;67.70;100202.82;105320;1262;98003;-74
2023/03/01 08:56:53;;;;;;;55.70;29.60;;;;;;;-0.36;67.60;100198.46;105009;1263;97974;-73
2023/03/01 08:59:21;;;;;;;56.90;31.90;;;;;;;-0.33;67.61;100200.34;104993;1260;110747;-75
2023/03/01 09:01:49;;;;;;;58.10;30.50;;;;;;;-0.31;67.53;100198.05;104772;1266;101416;-75
2023/03/01 09:04:17;;;;;;;61.80;33.00;;;;;;;-0.28;67.77;100201.88;105049;1271;107235;-72
2023/03/01 09:06:46;;;;;;;54.40;30.80;;;;;;;-0.25;67.71;100201.66;105249;1262;97957;-74
2023/03/01 09:09:16;;;;;;;56.20;31.90;;;;;;;-0.21;67.76;100202.50;105130;1271;99001;-74
2023/03/01 09:11:46;;;;;;;55.20;30.70;;;;;;;-0.19;67.68;100201.07;105176;1270;111223;-74
2023/03/01 09:14:14;;;;;;;59.20;32.20;;;;;;;-0.18;67.69;100200.01;104998;1262;100558;-73
2023/03/01 09:16:43;;;;;;;89.00;42.50;;;;;;;-0.17;67.68;100197.02;105271;1259;107516;-75
2023/03/01 09:19:12;;;;;;;51.00;29.70;;;;;;;-0.13;67.62;100199.43;105186;1260;155674;-76
2023/03/01 09:21:41;;;;;;;56.50;30.30;;;;;;;-0.10;67.50;100199.07;104959;1273;98553;-73
2023/03/01 09:24:13;;;;;;;53.80;27.40;;;;;;;-0.07;67.61;100201.31;104720;1266;110039;-76
2023/03/01 09:26:41;;;;;;;45.30;24.30;;;;;;;-0.05;67.56;100204.06;104724;1263;99403;-73
2023/03/01 09:29:09;;;;;;;49.30;25.60;;;;;;;0.03;67.22;100200.50;104807;1262;107203;-71
2023/03/01 09:31:38;;;;;;;39.10;20.30;;;;;;;0.09;66.86;100200.23;104885;1271;98025;-72
2023/03/01 09:34:07;;;;;;;38.70;22.00;;;;;;;0.12;66.81;100198.30;104740;1263;99403;-73
2023/03/01 09:36:36;;;;;;;44.10;24.20;;;;;;;0.14;67.03;100199.84;104897;1265;111338;-71
2023/03/01 09:39:05;;;;;;;44.90;23.00;;;;;;;0.18;67.03;100197.71;105025;1260;99669;-73
2023/03/01 09:41:49;;;;;;;45.40;23.20;;;;;;;0.24;66.92;100200.25;104957;1262;107155;-75
2023/03/01 09:44:33;;;;;;;46.60;23.90;;;;;;;0.30;66.89;100194.61;104834;1263;98027;-74
2023/03/01 09:47:02;;;;;;;48.50;24.70;;;;;;;0.32;67.12;100191.79;104857;1263;97969;-75
2023/03/01 09:49:35;;;;;;;49.00;26.80;;;;;;;0.35;67.18;100186.52;105091;1263;110709;-73
2023/03/01 09:52:19;;;;;;;44.40;23.60;;;;;;;0.39;67.24;100182.09;104946;1269;101246;-73
2023/03/01 09:54:49;;;;;;;46.60;25.30;;;;;;;0.43;67.05;100178.38;104672;1278;106828;-75
2023/03/01 09:57:18;;;;;;;50.40;27.10;;;;;;;0.48;67.15;100179.36;105079;1267;98324;-74
2023/03/01 09:59:52;;;;;;;46.20;24.30;;;;;;;0.54;67.09;100175.63;105078;1261;98360;-73
2023/03/01 10:02:26;;;;;;;46.30;24.60;;;;;;;0.56;67.15;100177.52;105112;1262;111281;-74
2023/03/01 10:05:19;;;;;;;54.10;26.60;;;;;;;0.60;66.94;100178.15;104761;1266;100886;-74
2023/03/01 10:08:20;;;;;;;46.60;24.30;;;;;;;0.62;66.89;100176.90;104887;1270;108019;-73
2023/03/01 10:10:49;;;;;;;43.10;23.70;;;;;;;0.67;67.00;100177.69;105191;1264;98023;-75
2023/03/01 10:13:25;;;;;;;47.90;25.60;;;;;;;0.71;66.38;100176.43;104889;1265;97922;-75
2023/03/01 10:15:59;;;;;;;43.70;23.70;;;;;;;0.74;66.31;100170.97;105213;1262;110168;-75
2023/03/01 10:18:33;;;;;;;41.40;22.40;;;;;;;0.78;66.67;100168.66;104787;1264;100467;-77
2023/03/01 10:21:12;;;;;;;43.70;23.10;;;;;;;0.79;66.88;100164.80;104878;1272;107083;-73
2023/03/01 10:23:40;;;;;;;42.60;22.10;;;;;;;0.80;66.62;100160.77;104722;1259;98203;-74
2023/03/01 10:26:17;;;;;;;38.90;21.20;;;;;;;0.84;66.75;100160.52;104820;1263;98520;-72
2023/03/01 10:29:07;;;;;;;45.10;22.90;;;;;;;0.90;66.71;100159.21;104782;1272;111252;-73
2023/03/01 10:31:50;;;;;;;46.50;24.10;;;;;;;0.93;66.42;100162.83;105059;1260;100782;-75
2023/03/01 10:34:28;;;;;;;34.40;18.80;;;;;;;0.97;66.69;100159.45;104913;1264;107009;-75
2023/03/01 10:37:08;;;;;;;44.70;22.30;;;;;;;1.01;66.89;100159.04;105074;1263;98073;-75
2023/03/01 10:39:36;;;;;;;43.60;23.50;;;;;;;1.05;66.67;100157.75;105035;1263;97946;-76
2023/03/01 10:42:23;;;;;;;39.80;20.90;;;;;;;1.07;66.37;100147.58;105104;1262;111119;-76
2023/03/01 10:44:51;;;;;;;39.80;20.20;;;;;;;1.11;66.19;100143.85;105117;1261;101197;-73
2023/03/01 10:47:27;;;;;;;43.90;24.10;;;;;;;1.12;66.52;100142.26;105220;1263;107235;-73
2023/03/01 10:50:04;;;;;;;47.60;24.90;;;;;;;1.17;66.33;100136.77;104902;1266;97979;-74
2023/03/01 10:52:37;;;;;;;42.50;23.60;;;;;;;1.23;66.64;100134.23;104922;1262;98388;-74
2023/03/01 10:55:12;;;;;;;40.60;22.50;;;;;;;1.27;66.92;100129.25;105224;1269;110033;-75
2023/03/01 10:57:41;;;;;;;42.40;21.80;;;;;;;1.33;66.78;100129.67;105400;1261;100897;-75
2023/03/01 11:00:13;;;;;;;41.50;22.10;;;;;;;1.38;66.44;100130.30;104901;1273;107497;-77
2023/03/01 11:02:41;;;;;;;42.30;22.50;;;;;;;1.41;66.63;100132.69;105119;1272;97937;-73
2023/03/01 11:05:12;;;;;;;42.10;22.60;;;;;;;1.45;66.47;100131.21;105214;1271;98452;-74
2023/03/01 11:08:01;;;;;;;43.10;24.30;;;;;;;1.49;66.48;100135.17;105074;1260;111287;-75
2023/03/01 11:10:32;;;;;;;43.00;23.40;;;;;;;1.55;66.46;100131.73;104934;1276;100959;-76
2023/03/01 11:13:18;;;;;;;45.40;24.80;;;;;;;1.57;66.47;100129.24;105136;1260;107669;-73